createdAt,value
2023-02-14T00:02:46.131Z,41.17
2023-02-14T00:07:48.296Z,42.17
2023-02-14T00:12:50.390Z,39.80
2023-02-14T00:17:55.242Z,39.50
2023-02-14T00:22:57.286Z,42.03
2023-02-14T00:27:59.297Z,45.33
2023-02-14T00:33:01.354Z,45.47
2023-02-14T00:38:03.341Z,45.33
2023-02-14T00:43:05.539Z,45.90
2023-02-14T00:48:07.642Z,47.00
2023-02-14T00:53:09.716Z,45.47
2023-02-14T00:58:11.865Z,47.47
2023-02-14T01:03:14.342Z,43.55
2023-02-14T01:08:16.837Z,46.33
2023-02-14T01:13:19.796Z,45.80
2023-02-14T01:18:21.898Z,44.08
2023-02-14T01:23:24.141Z,42.45
2023-02-14T01:28:26.250Z,40.40
2023-02-14T01:33:28.289Z,42.17
2023-02-14T01:38:30.367Z,43.85
2023-02-14T01:43:32.398Z,40.97
2023-02-14T01:48:35.332Z,45.42
2023-02-14T01:53:37.425Z,42.45
2023-02-14T01:58:44.951Z,45.25
2023-02-14T02:03:54.682Z,43.15
2023-02-14T02:09:28.294Z,43.22
2023-02-14T02:14:31.068Z,42.40
2023-02-14T02:19:59.873Z,48.63
2023-02-14T02:25:20.935Z,46.72
2023-02-14T02:30:23.096Z,47.50
2023-02-14T02:35:40.661Z,47.05
2023-02-14T02:41:06.071Z,46.80
2023-02-14T02:46:49.800Z,48.15
2023-02-14T02:52:14.210Z,44.13
2023-02-14T02:57:23.636Z,45.17
2023-02-14T03:02:54.234Z,47.38
2023-02-14T03:07:57.080Z,45.33
2023-02-14T03:13:30.821Z,45.65
2023-02-14T03:18:47.977Z,45.83
2023-02-14T03:24:02.295Z,45.40
2023-02-14T03:29:31.458Z,39.50
2023-02-14T03:34:43.320Z,42.55
2023-02-14T03:39:58.049Z,42.35
2023-02-14T03:45:02.353Z,46.50
2023-02-14T03:50:10.932Z,45.38
2023-02-14T03:55:16.641Z,45.60
2023-02-14T04:00:19.397Z,47.10
2023-02-14T04:05:27.173Z,47.75
2023-02-14T04:10:29.368Z,49.15
2023-02-14T04:15:31.390Z,49.30
2023-02-14T04:20:34.125Z,50.88
2023-02-14T04:25:36.320Z,54.33
2023-02-14T04:30:38.429Z,50.65
2023-02-14T04:35:40.448Z,52.72
2023-02-14T04:40:42.509Z,46.05
2023-02-14T04:45:44.564Z,45.55
2023-02-14T04:50:52.528Z,53.80
2023-02-14T04:55:54.634Z,50.03
2023-02-14T05:00:56.715Z,51.75
2023-02-14T05:05:58.805Z,46.55
2023-02-14T05:11:01.185Z,52.10
2023-02-14T05:16:03.539Z,48.65
2023-02-14T05:21:05.814Z,51.35
2023-02-14T05:26:08.074Z,56.75
2023-02-14T05:31:10.381Z,53.65
2023-02-14T05:36:12.538Z,62.50
2023-02-14T05:41:14.600Z,48.22
2023-02-14T05:46:17.067Z,51.13
2023-02-14T05:51:19.212Z,51.80
2023-02-14T05:56:21.288Z,54.22
2023-02-14T06:01:23.431Z,51.75
2023-02-14T06:06:25.614Z,53.78
2023-02-14T06:11:27.670Z,53.90
2023-02-14T06:16:29.881Z,58.30
2023-02-14T06:21:32.221Z,52.00
2023-02-14T06:26:36.030Z,49.30
2023-02-14T06:31:38.280Z,52.83
2023-02-14T06:36:40.499Z,54.08
2023-02-14T06:41:42.537Z,54.15
2023-02-14T06:46:44.558Z,48.15
2023-02-14T06:51:46.610Z,50.08
2023-02-14T06:56:48.626Z,50.58
2023-02-14T07:01:51.028Z,55.22
2023-02-14T07:06:53.330Z,49.75
2023-02-14T07:11:55.571Z,51.38
2023-02-14T07:16:57.649Z,52.20
2023-02-14T07:21:59.831Z,54.80
2023-02-14T07:27:02.108Z,53.75
2023-02-14T07:32:04.749Z,55.20
2023-02-14T07:37:07.366Z,61.20
2023-02-14T07:42:10.595Z,66.75
2023-02-14T07:47:13.278Z,61.60
2023-02-14T07:52:15.334Z,75.03
2023-02-14T07:57:17.540Z,78.38
2023-02-14T08:02:20.943Z,72.57
2023-02-14T08:07:22.994Z,80.45
2023-02-14T08:12:43.291Z,72.47
2023-02-14T08:17:45.419Z,70.37
2023-02-14T08:22:47.484Z,68.57
2023-02-14T08:27:49.523Z,70.35
2023-02-14T08:32:51.589Z,68.53
2023-02-14T08:37:53.663Z,70.18
2023-02-14T08:42:55.834Z,73.35
2023-02-14T08:48:08.337Z,72.93
2023-02-14T08:53:11.918Z,69.18
2023-02-14T08:58:14.369Z,79.97
2023-02-14T09:03:16.443Z,75.85
2023-02-14T09:08:18.536Z,79.55
2023-02-14T09:13:20.522Z,69.60
2023-02-14T09:18:22.749Z,69.47
2023-02-14T09:23:24.802Z,68.47
2023-02-14T09:28:26.931Z,65.82
2023-02-14T09:33:29.198Z,71.63
2023-02-14T09:38:31.317Z,66.78
2023-02-14T09:43:51.120Z,62.20
2023-02-14T09:48:54.769Z,64.32
2023-02-14T09:54:09.289Z,63.28
2023-02-14T09:59:34.471Z,66.22
2023-02-14T10:04:57.330Z,68.78
2023-02-14T10:10:02.065Z,65.28
2023-02-14T10:15:20.613Z,60.97
2023-02-14T10:20:37.383Z,60.78
2023-02-14T10:26:01.225Z,51.92
2023-02-14T10:31:22.211Z,49.55
2023-02-14T10:36:55.405Z,54.10
2023-02-14T10:42:24.545Z,49.42
2023-02-14T10:47:41.683Z,49.50
2023-02-14T10:53:17.003Z,51.13
2023-02-14T10:58:22.127Z,48.40
2023-02-14T11:03:24.346Z,48.30
2023-02-14T11:08:33.588Z,50.97
2023-02-14T11:13:38.685Z,49.15
2023-02-14T11:18:41.382Z,49.28
2023-02-14T11:23:48.440Z,54.15
2023-02-14T11:28:55.733Z,46.47
2023-02-14T11:33:58.843Z,50.00
2023-02-14T11:39:03.637Z,54.72
2023-02-14T11:44:22.793Z,47.28
2023-02-14T11:49:31.981Z,45.72
2023-02-14T11:54:37.263Z,45.35
2023-02-14T11:59:48.493Z,45.08
2023-02-14T12:04:54.924Z,41.17
2023-02-14T12:10:08.259Z,39.72
2023-02-14T12:15:42.492Z,40.92
2023-02-14T12:20:53.832Z,36.90
2023-02-14T12:26:21.604Z,40.53
2023-02-14T12:31:23.819Z,39.55
2023-02-14T12:36:45.778Z,36.13
2023-02-14T12:42:10.027Z,38.78
2023-02-14T12:47:20.931Z,35.72
2023-02-14T12:52:37.216Z,39.08
2023-02-14T12:57:48.130Z,32.63
2023-02-14T13:03:22.151Z,33.83
2023-02-14T13:08:27.165Z,34.92
2023-02-14T13:14:04.390Z,38.35
2023-02-14T13:19:39.305Z,35.25
2023-02-14T13:24:43.574Z,35.38
2023-02-14T13:29:51.189Z,34.88
2023-02-14T13:34:53.858Z,36.45
2023-02-14T13:40:15.956Z,31.42
2023-02-14T13:45:37.590Z,32.10
2023-02-14T13:50:56.430Z,31.95
2023-02-14T13:55:59.103Z,30.35
2023-02-14T14:01:40.389Z,30.88
2023-02-14T14:07:00.886Z,29.87
2023-02-14T14:12:03.197Z,30.63
2023-02-14T14:17:20.530Z,28.30
2023-02-14T14:22:22.757Z,32.33
2023-02-14T14:27:33.380Z,30.75
2023-02-14T14:37:56.684Z,28.20
2023-02-14T14:43:22.976Z,30.90
2023-02-14T14:48:51.064Z,30.27
2023-02-14T14:54:06.504Z,32.78
2023-02-14T14:59:34.575Z,31.05
2023-02-14T15:04:36.747Z,29.83
2023-02-14T15:09:41.312Z,25.45
2023-02-14T15:14:50.417Z,30.48
2023-02-14T15:19:56.385Z,28.42
2023-02-14T15:24:58.584Z,33.72
2023-02-14T15:30:05.132Z,31.42
2023-02-14T15:35:07.766Z,30.83
2023-02-14T15:40:17.833Z,31.90
2023-02-14T15:45:26.439Z,36.03
2023-02-14T15:50:33.429Z,36.25
2023-02-14T15:55:36.096Z,34.50
2023-02-14T16:00:38.237Z,38.25
2023-02-14T16:05:46.945Z,38.63
2023-02-14T16:11:08.728Z,39.42
2023-02-14T16:16:12.926Z,43.50
2023-02-14T16:21:29.130Z,43.35
2023-02-14T16:26:32.099Z,42.95
2023-02-14T16:31:35.837Z,44.65
2023-02-14T16:36:38.026Z,45.38
2023-02-14T16:41:43.561Z,43.78
2023-02-14T16:46:46.496Z,43.90
2023-02-14T16:51:48.636Z,47.90
2023-02-14T16:56:54.661Z,50.53
2023-02-14T17:01:57.658Z,46.35
2023-02-14T17:07:05.669Z,54.83
2023-02-14T17:12:16.115Z,55.03
2023-02-14T17:17:18.453Z,50.87
2023-02-14T17:22:20.707Z,55.78
2023-02-14T17:27:22.736Z,48.45
2023-02-14T17:32:24.943Z,46.55
2023-02-14T17:37:26.956Z,49.10
2023-02-14T17:42:31.625Z,52.25
2023-02-14T17:47:34.175Z,51.92
2023-02-14T17:52:36.475Z,50.97
2023-02-14T17:57:40.837Z,56.80
2023-02-14T18:02:43.371Z,56.08
2023-02-14T18:07:45.466Z,64.10
2023-02-14T18:12:48.020Z,62.42
2023-02-14T18:17:50.738Z,56.83
2023-02-14T18:22:52.805Z,69.45
2023-02-14T18:27:54.838Z,69.95
2023-02-14T18:32:56.970Z,76.22
2023-02-14T18:37:59.060Z,72.57
2023-02-14T18:43:01.902Z,67.10
2023-02-14T18:48:04.961Z,63.00
2023-02-14T18:53:08.118Z,60.15
2023-02-14T18:58:10.392Z,64.88
2023-02-14T19:03:12.394Z,68.90
2023-02-14T19:08:14.574Z,72.47
2023-02-14T19:13:16.836Z,73.80
2023-02-14T19:18:19.018Z,70.95
2023-02-14T19:23:21.645Z,73.82
2023-02-14T19:28:24.016Z,63.10
2023-02-14T19:33:26.026Z,65.25
2023-02-14T19:38:28.452Z,66.07
2023-02-14T19:43:30.737Z,70.53
2023-02-14T19:48:32.721Z,67.65
2023-02-14T19:53:35.506Z,64.93
2023-02-14T19:58:37.757Z,69.25
2023-02-14T20:03:39.884Z,72.47
2023-02-14T20:08:42.078Z,68.78
2023-02-14T20:13:44.309Z,72.15
2023-02-14T20:18:46.762Z,74.75
2023-02-14T20:23:48.824Z,71.88
2023-02-14T20:28:50.859Z,72.00
2023-02-14T20:33:53.179Z,72.88
2023-02-14T20:39:00.805Z,71.78
2023-02-14T20:44:21.892Z,76.95
2023-02-14T20:49:26.037Z,83.22
2023-02-14T20:54:29.116Z,74.90
2023-02-14T20:59:31.146Z,76.57
2023-02-14T21:04:33.208Z,77.78
2023-02-14T21:09:35.198Z,74.18
2023-02-14T21:14:37.276Z,80.35
2023-02-14T21:19:39.341Z,70.57
2023-02-14T21:24:41.559Z,65.93
2023-02-14T21:29:43.628Z,75.95
2023-02-14T21:34:45.846Z,73.55
2023-02-14T21:39:48.443Z,68.57
2023-02-14T21:45:09.021Z,66.80
2023-02-14T21:50:29.871Z,75.33
2023-02-14T21:55:32.149Z,72.32
2023-02-14T22:00:34.429Z,70.10
2023-02-14T22:05:36.532Z,69.28
2023-02-14T22:10:40.217Z,68.55
2023-02-14T22:15:42.273Z,66.95
2023-02-14T22:20:44.445Z,69.00
2023-02-14T22:25:46.528Z,72.65
2023-02-14T22:30:48.532Z,68.63
2023-02-14T22:35:54.808Z,69.32
2023-02-14T22:40:57.142Z,67.22
2023-02-14T22:46:12.429Z,63.20
2023-02-14T22:51:32.536Z,65.93
2023-02-14T22:56:41.035Z,63.05
2023-02-14T23:01:43.936Z,62.47
2023-02-14T23:06:46.122Z,64.80
2023-02-14T23:11:49.152Z,64.05
2023-02-14T23:17:10.335Z,66.63
2023-02-14T23:22:15.506Z,59.58
2023-02-14T23:27:20.410Z,63.70
2023-02-14T23:32:22.591Z,60.78
2023-02-14T23:37:25.204Z,66.00
2023-02-14T23:42:28.182Z,66.57
2023-02-14T23:47:30.191Z,69.82
2023-02-14T23:52:32.266Z,78.45
2023-02-14T23:57:34.422Z,83.57
